createdAt,value
2022-08-20T00:06:01.535Z,23.85
2022-08-20T00:13:03.550Z,23.76
2022-08-20T00:20:05.817Z,23.64
2022-08-20T00:27:07.290Z,23.58
2022-08-20T00:34:08.808Z,23.52
2022-08-20T00:41:12.484Z,23.49
2022-08-20T00:48:13.935Z,23.49
2022-08-20T00:55:15.415Z,23.46
2022-08-20T01:02:17.632Z,23.39
2022-08-20T01:09:50.299Z,23.40
2022-08-20T01:16:40.791Z,23.36
2022-08-20T01:23:51.355Z,23.36
2022-08-20T01:30:52.874Z,23.31
2022-08-20T01:37:54.563Z,23.27
2022-08-20T01:44:56.186Z,23.26
2022-08-20T01:51:58.989Z,23.20
2022-08-20T01:59:01.194Z,23.14
2022-08-20T02:06:03.221Z,23.10
2022-08-20T02:13:05.506Z,23.15
2022-08-20T02:20:07.156Z,23.06
2022-08-20T02:27:08.605Z,23.07
2022-08-20T02:34:14.762Z,23.00
2022-08-20T02:41:24.295Z,22.92
2022-08-20T02:48:25.941Z,22.82
2022-08-20T02:55:28.454Z,22.78
2022-08-20T03:02:30.248Z,22.77
2022-08-20T03:09:31.857Z,22.72
2022-08-20T03:16:33.273Z,22.71
2022-08-20T03:23:35.020Z,22.72
2022-08-20T03:30:37.014Z,22.73
2022-08-20T03:37:39.776Z,22.72
2022-08-20T03:44:48.767Z,22.73
2022-08-20T03:52:01.334Z,22.71
2022-08-20T03:59:02.793Z,22.72
2022-08-20T04:06:04.279Z,22.69
2022-08-20T04:13:06.908Z,22.70
2022-08-20T04:20:10.783Z,22.70
2022-08-20T04:27:12.350Z,22.67
2022-08-20T04:34:14.213Z,22.65
2022-08-20T04:41:23.011Z,22.66
2022-08-20T04:48:25.389Z,22.68
2022-08-20T04:55:26.809Z,22.66
2022-08-20T05:02:28.318Z,22.67
2022-08-20T05:09:32.376Z,22.70
2022-08-20T05:16:45.447Z,22.75
2022-08-20T05:23:47.004Z,22.76
2022-08-20T05:30:48.843Z,22.80
2022-08-20T05:37:51.284Z,22.78
2022-08-20T05:44:52.918Z,22.82
2022-08-20T05:51:54.457Z,22.85
2022-08-20T05:58:56.113Z,22.91
2022-08-20T06:05:57.866Z,22.94
2022-08-20T06:12:59.354Z,22.95
2022-08-20T06:20:01.606Z,22.97
2022-08-20T06:27:03.651Z,22.92
2022-08-20T06:34:05.253Z,22.93
2022-08-20T06:41:08.000Z,22.87
2022-08-20T06:48:10.171Z,22.84
2022-08-20T06:55:17.334Z,22.86
2022-08-20T07:02:18.790Z,22.83
2022-08-20T07:09:21.298Z,22.89
2022-08-20T07:16:22.749Z,22.93
2022-08-20T07:23:24.661Z,22.94
2022-08-20T07:30:56.210Z,22.92
2022-08-20T07:37:59.071Z,22.94
2022-08-20T07:45:00.539Z,22.99
2022-08-20T07:52:02.014Z,23.00
2022-08-20T07:59:03.457Z,22.97
2022-08-20T08:06:05.109Z,22.99
2022-08-20T08:13:07.263Z,22.95
2022-08-20T08:20:09.003Z,23.07
2022-08-20T08:27:10.554Z,23.13
2022-08-20T08:34:12.887Z,23.12
2022-08-20T08:41:14.358Z,23.24
2022-08-20T08:48:18.571Z,23.22
2022-08-20T08:55:20.797Z,23.28
2022-08-20T09:02:23.190Z,23.39
2022-08-20T09:09:28.944Z,23.50
2022-08-20T09:16:52.654Z,23.52
2022-08-20T09:23:51.829Z,23.58
2022-08-20T09:30:53.278Z,23.75
2022-08-20T09:37:55.970Z,23.82
2022-08-20T09:44:57.799Z,23.90
2022-08-20T09:51:59.539Z,23.94
2022-08-20T09:59:02.898Z,23.99
2022-08-20T10:06:04.582Z,24.02
2022-08-20T10:13:06.069Z,23.98
2022-08-20T10:20:08.768Z,24.02
2022-08-20T10:27:10.225Z,24.06
2022-08-20T10:34:11.762Z,24.11
2022-08-20T10:41:13.292Z,24.12
2022-08-20T10:48:19.449Z,24.30
2022-08-20T10:55:22.840Z,24.49
2022-08-20T11:02:24.483Z,24.69
2022-08-20T11:09:26.015Z,24.86
2022-08-20T11:16:27.478Z,24.99
2022-08-20T11:23:28.922Z,24.93
2022-08-20T11:30:33.136Z,24.93
2022-08-20T11:37:34.586Z,24.85
2022-08-20T11:44:36.065Z,24.80
2022-08-20T11:51:49.232Z,24.83
2022-08-20T11:58:51.720Z,24.88
2022-08-20T12:05:53.250Z,24.97
2022-08-20T12:12:55.189Z,24.98
2022-08-20T12:19:57.298Z,24.95
2022-08-20T12:27:18.307Z,24.90
2022-08-20T12:40:32.156Z,24.95
2022-08-20T12:47:39.382Z,24.99
2022-08-20T12:54:41.038Z,24.92
2022-08-20T13:01:42.768Z,24.85
2022-08-20T13:08:44.456Z,24.78
2022-08-20T13:15:46.144Z,24.62
2022-08-20T13:22:47.783Z,24.52
2022-08-20T13:29:53.990Z,24.44
2022-08-20T13:36:58.059Z,24.31
2022-08-20T13:43:59.666Z,24.27
2022-08-20T13:51:01.380Z,24.07
2022-08-20T13:58:08.717Z,23.98
2022-08-20T14:05:10.521Z,23.98
2022-08-20T14:12:13.909Z,23.94
2022-08-20T14:19:15.587Z,23.91
2022-08-20T14:26:17.190Z,23.92
2022-08-20T14:33:18.808Z,23.80
2022-08-20T14:40:21.530Z,23.87
2022-08-20T14:47:28.001Z,24.00
2022-08-20T14:54:29.604Z,23.99
2022-08-20T15:01:31.290Z,23.89
2022-08-20T15:08:33.005Z,23.79
2022-08-20T15:15:35.277Z,23.76
2022-08-20T15:22:37.380Z,23.63
2022-08-20T15:29:39.574Z,23.62
2022-08-20T15:36:41.500Z,23.61
2022-08-20T15:43:43.271Z,23.58
2022-08-20T15:50:47.973Z,23.59
2022-08-20T15:58:10.843Z,23.52
2022-08-20T16:05:20.146Z,23.50
2022-08-20T16:12:28.490Z,23.44
2022-08-20T16:19:40.114Z,23.39
2022-08-20T16:26:46.227Z,23.37
2022-08-20T16:34:32.255Z,23.36
2022-08-20T16:41:41.107Z,23.35
2022-08-20T16:48:48.517Z,23.40
2022-08-20T16:55:50.173Z,23.40
2022-08-20T17:02:54.385Z,23.43
2022-08-20T17:10:09.034Z,23.43
2022-08-20T17:17:31.217Z,23.42
2022-08-20T17:24:32.837Z,23.45
2022-08-20T17:31:38.449Z,23.46
2022-08-20T17:38:47.992Z,23.48
2022-08-20T17:45:49.629Z,23.49
2022-08-20T17:52:54.359Z,23.50
2022-08-20T18:00:02.727Z,23.54
2022-08-20T18:07:32.302Z,23.48
2022-08-20T18:15:00.035Z,23.42
2022-08-20T18:22:12.183Z,23.37
2022-08-20T18:29:16.330Z,23.32
2022-08-20T18:36:17.807Z,23.25
2022-08-20T18:43:27.888Z,23.28
2022-08-20T18:50:38.590Z,23.22
2022-08-20T18:57:53.353Z,23.09
2022-08-20T19:05:02.130Z,23.04
2022-08-20T19:12:07.305Z,22.98
2022-08-20T19:19:16.847Z,22.96
2022-08-20T19:26:25.235Z,22.94
2022-08-20T19:33:29.761Z,22.95
2022-08-20T19:40:38.862Z,22.92
2022-08-20T19:47:41.759Z,22.89
2022-08-20T19:54:53.947Z,22.91
2022-08-20T20:02:01.437Z,22.89
2022-08-20T20:09:13.523Z,22.90
2022-08-20T20:16:16.849Z,22.86
2022-08-20T20:23:46.982Z,22.88
2022-08-20T20:30:48.836Z,22.88
2022-08-20T20:38:06.419Z,22.91
2022-08-20T20:45:48.708Z,22.87
2022-08-20T20:52:51.702Z,22.85
2022-08-20T20:59:53.385Z,22.87
2022-08-20T21:06:56.719Z,22.85
2022-08-20T21:13:58.354Z,22.86
2022-08-20T21:20:59.942Z,22.90
2022-08-20T21:28:01.704Z,22.89
2022-08-20T21:35:03.831Z,22.84
2022-08-20T21:42:16.070Z,22.80
2022-08-20T21:49:28.486Z,22.79
2022-08-20T21:56:30.178Z,22.79
2022-08-20T22:03:37.219Z,22.82
2022-08-20T22:10:40.592Z,22.81
2022-08-20T22:17:42.375Z,22.77
2022-08-20T22:24:45.584Z,22.72
2022-08-20T22:31:47.487Z,22.69
2022-08-20T22:38:54.652Z,22.63
2022-08-20T22:45:58.230Z,22.62
2022-08-20T22:53:00.680Z,22.63
2022-08-20T23:00:02.489Z,22.61
2022-08-20T23:07:04.463Z,22.56
2022-08-20T23:14:06.083Z,22.56
2022-08-20T23:21:07.702Z,22.53
2022-08-20T23:28:09.947Z,22.52
2022-08-20T23:35:12.128Z,22.46
2022-08-20T23:42:14.527Z,22.46
2022-08-20T23:49:16.223Z,22.47
2022-08-20T23:56:17.939Z,22.46
